Time;durP1;ratioP1;P1;durP2;ratioP2;P2;SDS_P1;SDS_P2;PMS_P1;PMS_P2;Temp;Humidity;BMP_temperature;BMP_pressure;BME280_temperature;BME280_humidity;BME280_pressure;Samples;Min_cycle;Max_cycle;Signal;HPM_P1;HPM_P2
2022/09/18 00:02:19;;;;;;;;;;;11.90;99.90;;;;;;5072762;28;19908;-75
2022/09/18 00:04:44;;;;;;;;;;;11.90;99.90;;;;;;5074036;28;19912;-75
2022/09/18 00:07:10;;;;;;;;;;;11.90;99.90;;;;;;5074341;28;20400;-76
2022/09/18 00:09:35;;;;;;;;;;;11.70;99.90;;;;;;5073863;28;19956;-76
2022/09/18 00:12:01;;;;;;;;;;;11.60;99.90;;;;;;5073939;28;19912;-76
2022/09/18 00:14:26;;;;;;;;;;;11.70;99.90;;;;;;5073968;28;20404;-76
2022/09/18 00:16:52;;;;;;;;;;;11.80;99.90;;;;;;5074461;28;19909;-75
2022/09/18 00:19:18;;;;;;;;;;;11.90;99.90;;;;;;5073866;28;20381;-74
2022/09/18 00:21:45;;;;;;;;;;;11.80;99.90;;;;;;5073856;28;19955;-76
2022/09/18 00:24:11;;;;;;;;;;;11.70;99.90;;;;;;5073806;28;19917;-75
2022/09/18 00:26:36;;;;;;;;;;;11.70;99.90;;;;;;5073803;28;19954;-76
2022/09/18 00:29:03;;;;;;;;;;;11.70;99.90;;;;;;5074062;28;19908;-76
2022/09/18 00:31:30;;;;;;;;;;;11.60;99.90;;;;;;5073737;28;19909;-76
2022/09/18 00:33:59;;;;;;;;;;;11.40;99.90;;;;;;5073558;28;20399;-76
2022/09/18 00:36:25;;;;;;;;;;;11.60;99.90;;;;;;5073614;28;19944;-77
2022/09/18 00:38:50;;;;;;;;;;;11.80;99.90;;;;;;5073605;28;19967;-75
2022/09/18 00:41:17;;;;;;;;;;;11.80;99.90;;;;;;5073578;28;19962;-75
2022/09/18 00:43:43;;;;;;;;;;;11.80;99.90;;;;;;5073537;28;20281;-76
2022/09/18 00:46:21;;;;;;;;;;;11.80;99.90;;;;;;5073580;28;19908;-76
2022/09/18 00:48:51;;;;;;;;;;;11.70;99.90;;;;;;5073141;28;19966;-76
2022/09/18 00:51:17;;;;;;;;;;;11.40;99.90;;;;;;5073663;28;19919;-76
2022/09/18 00:53:46;;;;;;;;;;;11.20;99.90;;;;;;5073515;28;19909;-76
2022/09/18 00:56:13;;;;;;;;;;;11.40;99.90;;;;;;5073475;28;20432;-76
2022/09/18 00:58:39;;;;;;;;;;;11.50;99.90;;;;;;5073673;28;20304;-76
2022/09/18 01:01:07;;;;;;;;;;;11.00;99.90;;;;;;5073949;28;19915;-75
2022/09/18 01:03:33;;;;;;;;;;;11.10;99.90;;;;;;5073334;28;20369;-76
2022/09/18 01:06:02;;;;;;;;;;;11.10;99.90;;;;;;5077230;28;19920;-74
2022/09/18 01:08:43;;;;;;;;;;;11.00;99.90;;;;;;5077289;28;19916;-76
2022/09/18 01:11:14;;;;;;;;;;;11.10;99.90;;;;;;5077226;28;19935;-76
2022/09/18 01:14:00;;;;;;;;;;;11.10;99.90;;;;;;5077663;28;19919;-75
2022/09/18 01:16:55;;;;;;;;;;;11.20;99.90;;;;;;5076646;28;19916;-75
2022/09/18 01:19:30;;;;;;;;;;;11.20;99.90;;;;;;5040131;28;20440;-76
2022/09/18 01:21:55;;;;;;;;;;;11.10;99.90;;;;;;5077211;28;19954;-75
2022/09/18 01:24:36;;;;;;;;;;;11.10;99.90;;;;;;5076977;28;19909;-76
2022/09/18 01:27:03;;;;;;;;;;;11.10;99.90;;;;;;5076971;28;19908;-78
2022/09/18 01:29:28;;;;;;;;;;;10.90;99.90;;;;;;5076902;28;20387;-76
2022/09/18 01:31:57;;;;;;;;;;;10.70;99.90;;;;;;5076803;28;19909;-74
2022/09/18 01:34:25;;;;;;;;;;;10.50;99.90;;;;;;5076971;28;20368;-75
2022/09/18 01:36:53;;;;;;;;;;;10.60;99.90;;;;;;5076817;28;19912;-76
2022/09/18 01:39:21;;;;;;;;;;;10.70;99.90;;;;;;5077183;28;19908;-75
2022/09/18 01:41:50;;;;;;;;;;;10.70;99.90;;;;;;5077019;28;19908;-76
2022/09/18 01:44:18;;;;;;;;;;;10.60;99.90;;;;;;5076833;28;19992;-76
2022/09/18 01:46:44;;;;;;;;;;;10.60;99.90;;;;;;5076369;28;19909;-75
2022/09/18 01:49:21;;;;;;;;;;;10.60;99.90;;;;;;5077075;28;19915;-76
2022/09/18 01:51:54;;;;;;;;;;;10.70;99.90;;;;;;5076764;28;19909;-76
2022/09/18 01:54:26;;;;;;;;;;;10.80;99.90;;;;;;5076469;28;19908;-76
2022/09/18 01:56:54;;;;;;;;;;;10.70;99.90;;;;;;5075121;28;19913;-76
2022/09/18 01:59:27;;;;;;;;;;;10.60;99.90;;;;;;5076418;28;19908;-76
2022/09/18 02:01:56;;;;;;;;;;;10.30;99.90;;;;;;5076546;28;20001;-75
2022/09/18 02:04:24;;;;;;;;;;;10.00;99.90;;;;;;5076409;28;20274;-77
2022/09/18 02:07:16;;;;;;;;;;;10.00;99.90;;;;;;5076323;28;20327;-75
2022/09/18 02:09:42;;;;;;;;;;;10.20;99.90;;;;;;5073846;28;20357;-75
2022/09/18 02:12:13;;;;;;;;;;;10.50;99.90;;;;;;5076168;28;19915;-74
2022/09/18 02:14:41;;;;;;;;;;;10.50;99.90;;;;;;5074242;28;20335;-75
2022/09/18 02:17:22;;;;;;;;;;;10.50;99.90;;;;;;5076081;28;19908;-76
2022/09/18 02:19:50;;;;;;;;;;;10.50;99.90;;;;;;5076192;28;19908;-76
2022/09/18 02:22:17;;;;;;;;;;;10.30;99.90;;;;;;5075958;28;20371;-76
2022/09/18 02:24:44;;;;;;;;;;;10.00;99.90;;;;;;5076010;28;19909;-76
2022/09/18 02:27:12;;;;;;;;;;;10.10;99.90;;;;;;5075919;28;19909;-75
2022/09/18 02:29:38;;;;;;;;;;;10.10;99.90;;;;;;5075758;28;19913;-77
2022/09/18 02:32:04;;;;;;;;;;;10.10;99.90;;;;;;5075786;28;19909;-76
2022/09/18 02:34:30;;;;;;;;;;;10.00;99.90;;;;;;5075993;28;19909;-75
2022/09/18 02:36:55;;;;;;;;;;;10.00;99.90;;;;;;5075857;28;19909;-74
2022/09/18 02:39:21;;;;;;;;;;;10.10;99.90;;;;;;5075624;28;19909;-75
2022/09/18 02:42:01;;;;;;;;;;;10.20;99.90;;;;;;5075621;28;19909;-75
2022/09/18 02:44:36;;;;;;;;;;;10.10;99.90;;;;;;5074079;28;19915;-75
2022/09/18 02:47:18;;;;;;;;;;;10.20;99.90;;;;;;5075287;28;19946;-76
2022/09/18 02:50:03;;;;;;;;;;;10.00;99.90;;;;;;5076193;28;19919;-74
2022/09/18 02:52:31;;;;;;;;;;;9.80;99.90;;;;;;5075356;28;19908;-76
2022/09/18 02:55:01;;;;;;;;;;;9.30;99.90;;;;;;5075325;28;20335;-75
2022/09/18 02:57:35;;;;;;;;;;;9.50;99.90;;;;;;5075286;28;19909;-75
2022/09/18 03:00:03;;;;;;;;;;;9.90;99.90;;;;;;5075632;28;19919;-75
2022/09/18 03:02:29;;;;;;;;;;;9.80;99.90;;;;;;5073894;28;20323;-75
2022/09/18 03:04:54;;;;;;;;;;;9.60;99.90;;;;;;5075149;28;19908;-75
2022/09/18 03:07:20;;;;;;;;;;;9.70;99.90;;;;;;5075193;28;20387;-75
2022/09/18 03:09:45;;;;;;;;;;;9.80;99.90;;;;;;5075144;28;19912;-74
2022/09/18 03:12:11;;;;;;;;;;;9.60;99.90;;;;;;5073701;28;19951;-75
2022/09/18 03:14:37;;;;;;;;;;;9.60;99.90;;;;;;5074973;28;20380;-76
2022/09/18 03:17:03;;;;;;;;;;;9.80;99.90;;;;;;5074900;28;19915;-76
2022/09/18 03:19:28;;;;;;;;;;;9.80;99.90;;;;;;5075057;28;19908;-76
2022/09/18 03:21:54;;;;;;;;;;;9.80;99.90;;;;;;5074863;28;19916;-75
2022/09/18 03:24:20;;;;;;;;;;;9.90;99.90;;;;;;5074743;28;19909;-76
2022/09/18 03:26:46;;;;;;;;;;;9.80;99.90;;;;;;5073977;28;19998;-75
2022/09/18 03:29:12;;;;;;;;;;;9.80;99.90;;;;;;5074618;28;19912;-74
2022/09/18 03:31:37;;;;;;;;;;;9.60;99.90;;;;;;5074821;28;19908;-75
2022/09/18 03:34:03;;;;;;;;;;;9.40;99.90;;;;;;5074588;28;19908;-74
2022/09/18 03:36:29;;;;;;;;;;;9.50;99.90;;;;;;5074621;28;19908;-75
2022/09/18 03:38:54;;;;;;;;;;;9.60;99.90;;;;;;5074496;28;19963;-75
2022/09/18 03:41:21;;;;;;;;;;;9.50;99.90;;;;;;5074419;28;19955;-76
2022/09/18 03:43:47;;;;;;;;;;;9.40;99.90;;;;;;5074330;28;19915;-76
2022/09/18 03:46:13;;;;;;;;;;;9.30;99.90;;;;;;5074326;28;19909;-77
2022/09/18 03:48:39;;;;;;;;;;;9.50;99.90;;;;;;5074429;28;19970;-75
2022/09/18 03:51:04;;;;;;;;;;;9.50;99.90;;;;;;5074213;28;19916;-76
2022/09/18 03:53:30;;;;;;;;;;;9.50;99.90;;;;;;5074192;28;19931;-75
2022/09/18 03:55:56;;;;;;;;;;;9.50;99.90;;;;;;5074465;28;19951;-77
2022/09/18 03:58:22;;;;;;;;;;;9.40;99.90;;;;;;5074126;28;19961;-75
2022/09/18 04:00:47;;;;;;;;;;;9.50;99.90;;;;;;5072774;28;20376;-76
2022/09/18 04:03:13;;;;;;;;;;;9.50;99.90;;;;;;5074005;28;19908;-75
2022/09/18 04:05:38;;;;;;;;;;;9.50;99.90;;;;;;5074466;28;19948;-75
2022/09/18 04:08:04;;;;;;;;;;;9.50;99.90;;;;;;5072837;28;19909;-76
2022/09/18 04:10:31;;;;;;;;;;;9.40;99.90;;;;;;5073878;28;19920;-76
2022/09/18 04:12:56;;;;;;;;;;;9.40;99.90;;;;;;5073983;28;19915;-76
2022/09/18 04:15:22;;;;;;;;;;;9.30;99.90;;;;;;5074154;28;19991;-75
2022/09/18 04:17:47;;;;;;;;;;;9.30;99.90;;;;;;5073875;28;20368;-75
2022/09/18 04:20:13;;;;;;;;;;;9.00;99.90;;;;;;5073860;28;19909;-76
2022/09/18 04:22:39;;;;;;;;;;;9.00;99.90;;;;;;5073906;28;19975;-75
2022/09/18 04:25:04;;;;;;;;;;;9.00;99.90;;;;;;5073869;28;19916;-75
2022/09/18 04:27:30;;;;;;;;;;;9.00;99.90;;;;;;5073713;28;19908;-75
2022/09/18 04:29:55;;;;;;;;;;;9.10;99.90;;;;;;5073712;28;20402;-77
2022/09/18 04:32:21;;;;;;;;;;;8.90;99.90;;;;;;5073704;28;19909;-75
2022/09/18 04:34:47;;;;;;;;;;;8.80;99.90;;;;;;5073703;28;19908;-76
2022/09/18 04:37:12;;;;;;;;;;;8.90;99.90;;;;;;5073702;28;19909;-75
2022/09/18 04:39:38;;;;;;;;;;;8.90;99.90;;;;;;5073509;28;19908;-76
2022/09/18 04:42:03;;;;;;;;;;;9.10;99.90;;;;;;5073783;28;19959;-75
2022/09/18 04:44:29;;;;;;;;;;;9.10;99.90;;;;;;5073552;28;20357;-75
2022/09/18 04:46:55;;;;;;;;;;;9.10;99.90;;;;;;5073396;28;20391;-76
2022/09/18 04:49:20;;;;;;;;;;;9.10;99.90;;;;;;5074138;28;19912;-75
2022/09/18 04:51:46;;;;;;;;;;;9.20;99.90;;;;;;5073951;28;20323;-76
2022/09/18 04:54:11;;;;;;;;;;;9.10;99.90;;;;;;5073786;28;20036;-74
2022/09/18 04:56:37;;;;;;;;;;;9.10;99.90;;;;;;5072184;28;20296;-76
2022/09/18 04:59:02;;;;;;;;;;;9.00;99.90;;;;;;5073472;28;19926;-76
2022/09/18 05:01:28;;;;;;;;;;;8.90;99.90;;;;;;5073440;28;20365;-76
2022/09/18 05:03:54;;;;;;;;;;;9.00;99.90;;;;;;5072102;28;19909;-73
2022/09/18 05:06:20;;;;;;;;;;;9.00;99.90;;;;;;5073380;28;20323;-76
2022/09/18 05:08:45;;;;;;;;;;;8.90;99.90;;;;;;5073649;28;19943;-75
2022/09/18 05:11:11;;;;;;;;;;;8.80;99.90;;;;;;5073379;28;20286;-77
2022/09/18 05:13:38;;;;;;;;;;;8.70;99.90;;;;;;5073311;28;19908;-76
2022/09/18 05:16:04;;;;;;;;;;;8.50;99.90;;;;;;5072010;28;19939;-75
2022/09/18 05:18:30;;;;;;;;;;;8.60;99.90;;;;;;5073643;28;19915;-76
2022/09/18 05:20:59;;;;;;;;;;;8.60;99.90;;;;;;5073498;28;19908;-75
2022/09/18 05:23:25;;;;;;;;;;;8.70;99.90;;;;;;5073219;28;19908;-76
2022/09/18 05:25:50;;;;;;;;;;;8.70;99.90;;;;;;5073450;28;19919;-75
2022/09/18 05:28:18;;;;;;;;;;;8.70;99.90;;;;;;5073374;28;19931;-75
2022/09/18 05:30:44;;;;;;;;;;;8.60;99.90;;;;;;5073441;28;19912;-75
2022/09/18 05:33:10;;;;;;;;;;;8.60;99.90;;;;;;5073240;28;19909;-76
2022/09/18 05:35:36;;;;;;;;;;;8.30;99.90;;;;;;5071814;28;19958;-76
2022/09/18 05:38:02;;;;;;;;;;;8.30;99.90;;;;;;5073083;28;19912;-74
2022/09/18 05:40:31;;;;;;;;;;;8.50;99.90;;;;;;5073296;28;20261;-76
2022/09/18 05:42:57;;;;;;;;;;;8.50;99.90;;;;;;5071762;28;19908;-76
2022/09/18 05:45:23;;;;;;;;;;;8.40;99.90;;;;;;5072961;28;20426;-75
2022/09/18 05:47:57;;;;;;;;;;;8.50;99.90;;;;;;5072796;28;20049;-74
2022/09/18 05:50:22;;;;;;;;;;;8.70;99.90;;;;;;5074502;28;19920;-76
2022/09/18 05:52:57;;;;;;;;;;;8.70;99.90;;;;;;5076513;28;19909;-76
2022/09/18 05:55:23;;;;;;;;;;;8.60;99.90;;;;;;5076596;28;19917;-75
2022/09/18 05:57:52;;;;;;;;;;;8.70;99.90;;;;;;5076555;28;19991;-75
2022/09/18 06:00:18;;;;;;;;;;;8.80;99.90;;;;;;5076390;28;19947;-76
2022/09/18 06:02:51;;;;;;;;;;;8.80;99.90;;;;;;5076342;28;19944;-76
2022/09/18 06:05:16;;;;;;;;;;;8.80;99.90;;;;;;5076650;28;19908;-75
2022/09/18 06:07:42;;;;;;;;;;;8.80;99.90;;;;;;5076254;28;20334;-76
2022/09/18 06:10:08;;;;;;;;;;;8.80;99.90;;;;;;5074814;28;19920;-74
2022/09/18 06:12:33;;;;;;;;;;;8.80;99.90;;;;;;5076146;28;19961;-74
2022/09/18 06:14:59;;;;;;;;;;;8.90;99.90;;;;;;5075773;28;19912;-75
2022/09/18 06:17:24;;;;;;;;;;;9.40;99.90;;;;;;5076053;28;19966;-75
2022/09/18 06:19:50;;;;;;;;;;;10.10;99.90;;;;;;5076027;28;19909;-77
2022/09/18 06:22:15;;;;;;;;;;;10.60;99.90;;;;;;5074639;28;19912;-75
2022/09/18 06:24:41;;;;;;;;;;;11.10;99.90;;;;;;5075962;28;19912;-76
2022/09/18 06:27:07;;;;;;;;;;;11.60;99.90;;;;;;5076032;28;19909;-74
2022/09/18 06:29:32;;;;;;;;;;;12.10;99.90;;;;;;5076020;28;19957;-76
2022/09/18 06:31:58;;;;;;;;;;;12.30;99.90;;;;;;5075810;28;19909;-76
2022/09/18 06:34:24;;;;;;;;;;;12.80;99.90;;;;;;5074428;28;19908;-77
2022/09/18 06:36:49;;;;;;;;;;;13.20;99.90;;;;;;5076041;28;19940;-76
2022/09/18 06:39:15;;;;;;;;;;;13.40;99.20;;;;;;5075772;28;19909;-76
2022/09/18 06:41:41;;;;;;;;;;;13.90;99.90;;;;;;5075610;28;19913;-76
2022/09/18 06:44:07;;;;;;;;;;;14.40;98.40;;;;;;5075539;28;19920;-76
2022/09/18 06:46:33;;;;;;;;;;;14.80;97.50;;;;;;5075400;28;20308;-76
2022/09/18 06:48:58;;;;;;;;;;;15.20;97.20;;;;;;5076065;28;20296;-76
2022/09/18 06:51:24;;;;;;;;;;;15.70;95.80;;;;;;5075429;28;19916;-75
2022/09/18 06:53:49;;;;;;;;;;;15.90;92.90;;;;;;5075396;28;19908;-77
2022/09/18 06:56:15;;;;;;;;;;;16.30;93.70;;;;;;5075327;28;20328;-76
2022/09/18 06:58:41;;;;;;;;;;;15.90;93.60;;;;;;5075430;28;20007;-76
2022/09/18 07:01:06;;;;;;;;;;;15.20;95.20;;;;;;5075137;28;19908;-75
2022/09/18 07:03:32;;;;;;;;;;;14.70;95.70;;;;;;5074580;28;19951;-77
2022/09/18 07:05:57;;;;;;;;;;;14.50;95.40;;;;;;5075172;28;19908;-76
2022/09/18 07:08:23;;;;;;;;;;;14.10;94.70;;;;;;5073829;28;19908;-77
2022/09/18 07:10:49;;;;;;;;;;;14.00;94.70;;;;;;5074994;28;19913;-77
2022/09/18 07:13:14;;;;;;;;;;;13.90;94.50;;;;;;5074932;28;19961;-76
2022/09/18 07:15:40;;;;;;;;;;;13.80;94.60;;;;;;5074937;28;19909;-76
2022/09/18 07:18:06;;;;;;;;;;;13.80;95.00;;;;;;5075286;28;20337;-76
2022/09/18 07:20:32;;;;;;;;;;;13.70;95.40;;;;;;5075232;28;19909;-77
2022/09/18 07:22:59;;;;;;;;;;;13.80;95.30;;;;;;5075039;28;19908;-77
2022/09/18 07:25:25;;;;;;;;;;;14.00;95.10;;;;;;5073575;28;19908;-75
2022/09/18 07:27:51;;;;;;;;;;;14.20;95.00;;;;;;5074698;28;19912;-77
2022/09/18 07:30:17;;;;;;;;;;;14.40;94.60;;;;;;5074571;28;20368;-78
2022/09/18 07:32:43;;;;;;;;;;;14.60;94.50;;;;;;5074839;28;19908;-77
2022/09/18 07:35:09;;;;;;;;;;;14.80;94.20;;;;;;5074519;28;19958;-77
2022/09/18 07:37:35;;;;;;;;;;;15.10;94.00;;;;;;5074518;28;19909;-77
2022/09/18 07:40:00;;;;;;;;;;;16.20;93.50;;;;;;5073199;28;20416;-76
2022/09/18 07:42:26;;;;;;;;;;;18.20;90.70;;;;;;5074431;28;19915;-76
2022/09/18 07:44:52;;;;;;;;;;;19.90;86.30;;;;;;5074302;28;19908;-76
2022/09/18 07:47:18;;;;;;;;;;;21.60;81.80;;;;;;5074142;28;19965;-77
2022/09/18 07:49:44;;;;;;;;;;;22.80;78.30;;;;;;5074792;28;19913;-78
2022/09/18 07:52:09;;;;;;;;;;;23.60;75.20;;;;;;5074332;28;19909;-78
2022/09/18 07:54:35;;;;;;;;;;;24.20;72.20;;;;;;5074340;28;19915;-78
2022/09/18 07:57:00;;;;;;;;;;;24.90;67.20;;;;;;5074163;28;19921;-76
2022/09/18 07:59:26;;;;;;;;;;;25.40;62.10;;;;;;5074148;28;19962;-76
2022/09/18 08:01:54;;;;;;;;;;;26.00;61.40;;;;;;5074401;28;19948;-79
2022/09/18 08:04:21;;;;;;;;;;;26.60;60.00;;;;;;5074123;28;19931;-77
2022/09/18 08:06:50;;;;;;;;;;;27.20;59.00;;;;;;5074178;28;19917;-75
2022/09/18 08:09:16;;;;;;;;;;;27.70;57.30;;;;;;5073902;28;19930;-78
2022/09/18 08:11:42;;;;;;;;;;;27.90;56.10;;;;;;5073920;28;19985;-79
2022/09/18 08:14:07;;;;;;;;;;;28.40;54.20;;;;;;5073854;28;19991;-78
2022/09/18 08:16:33;;;;;;;;;;;28.80;54.10;;;;;;5073956;28;19947;-78
2022/09/18 08:18:58;;;;;;;;;;;28.80;51.90;;;;;;5073869;28;20343;-78
2022/09/18 08:21:24;;;;;;;;;;;29.40;51.90;;;;;;5073824;28;19939;-78
2022/09/18 08:23:50;;;;;;;;;;;29.30;50.50;;;;;;5073791;28;19962;-76
2022/09/18 08:26:15;;;;;;;;;;;29.50;50.70;;;;;;5073885;28;20003;-76
2022/09/18 08:28:41;;;;;;;;;;;29.70;50.00;;;;;;5073791;28;19912;-75
2022/09/18 08:31:06;;;;;;;;;;;29.30;50.30;;;;;;5073647;28;20284;-76
2022/09/18 08:33:32;;;;;;;;;;;29.40;49.60;;;;;;5073676;28;19908;-75
2022/09/18 08:35:57;;;;;;;;;;;29.40;50.60;;;;;;5073794;28;19908;-76
2022/09/18 08:38:23;;;;;;;;;;;30.40;50.10;;;;;;5073722;28;20293;-74
2022/09/18 08:41:00;;;;;;;;;;;31.10;48.70;;;;;;5073570;28;19909;-74
2022/09/18 08:43:26;;;;;;;;;;;31.60;47.90;;;;;;5073569;28;19913;-76
2022/09/18 08:45:57;;;;;;;;;;;32.20;47.90;;;;;;5073438;28;20000;-77
2022/09/18 08:48:27;;;;;;;;;;;32.60;46.70;;;;;;5073413;28;19927;-77
2022/09/18 08:50:57;;;;;;;;;;;32.30;45.90;;;;;;5074280;28;19909;-76
2022/09/18 08:53:25;;;;;;;;;;;32.60;45.40;;;;;;5073491;28;19913;-77
2022/09/18 08:55:51;;;;;;;;;;;32.70;44.80;;;;;;5073741;28;20352;-75
2022/09/18 08:58:23;;;;;;;;;;;32.90;43.90;;;;;;5073491;28;19946;-77
2022/09/18 09:00:52;;;;;;;;;;;33.00;43.10;;;;;;5073362;28;19966;-77
2022/09/18 09:03:31;;;;;;;;;;;33.90;42.60;;;;;;5073433;28;20428;-75
2022/09/18 09:05:57;;;;;;;;;;;34.60;41.80;;;;;;5073308;28;19915;-75
2022/09/18 09:08:42;;;;;;;;;;;34.20;41.30;;;;;;5073287;28;19908;-75
2022/09/18 09:11:11;;;;;;;;;;;35.00;39.30;;;;;;5071980;28;19940;-77
2022/09/18 09:13:37;;;;;;;;;;;;;;;;;;5073672;28;19909;-78
2022/09/18 09:16:06;;;;;;;;;;;37.00;38.70;;;;;;5073634;28;20517;-75
2022/09/18 09:18:37;;;;;;;;;;;37.90;37.90;;;;;;5073365;28;19966;-77
2022/09/18 09:21:19;;;;;;;;;;;38.50;36.40;;;;;;5073327;28;19920;-78
2022/09/18 09:23:55;;;;;;;;;;;37.80;35.20;;;;;;5073448;28;20421;-78
2022/09/18 09:26:22;;;;;;;;;;;41.00;35.30;;;;;;5076239;28;20394;-76
2022/09/18 09:28:58;;;;;;;;;;;41.50;33.90;;;;;;5077090;28;19909;-76
2022/09/18 09:31:31;;;;;;;;;;;42.10;33.30;;;;;;5076827;28;19915;-76
2022/09/18 09:34:03;;;;;;;;;;;43.60;32.50;;;;;;5076544;28;19973;-77
2022/09/18 09:36:29;;;;;;;;;;;43.80;31.70;;;;;;5076957;28;19908;-77
2022/09/18 09:39:14;;;;;;;;;;;43.20;31.80;;;;;;5076788;28;19909;-77
2022/09/18 09:41:41;;;;;;;;;;;44.00;30.90;;;;;;5075370;28;20292;-77
2022/09/18 09:44:09;;;;;;;;;;;43.70;30.60;;;;;;5076665;28;19908;-78
2022/09/18 09:46:42;;;;;;;;;;;44.80;30.50;;;;;;5076628;28;20304;-78
2022/09/18 09:49:17;;;;;;;;;;;45.40;30.40;;;;;;5076671;28;19961;-76
2022/09/18 09:52:01;;;;;;;;;;;45.60;29.60;;;;;;5076722;28;19913;-76
2022/09/18 09:54:27;;;;;;;;;;;45.70;29.20;;;;;;5076510;28;19909;-79
2022/09/18 09:57:05;;;;;;;;;;;44.90;30.00;;;;;;5075649;28;20288;-78
2022/09/18 09:59:30;;;;;;;;;;;46.30;29.10;;;;;;5076532;28;19912;-78
2022/09/18 10:02:14;;;;;;;;;;;45.10;28.70;;;;;;5076357;28;19962;-79
2022/09/18 10:04:51;;;;;;;;;;;46.00;29.30;;;;;;5076432;28;19915;-79
2022/09/18 10:07:23;;;;;;;;;;;47.20;29.10;;;;;;5076445;28;20349;-78
2022/09/18 10:10:01;;;;;;;;;;;46.80;28.90;;;;;;5076194;28;19912;-78
2022/09/18 10:12:27;;;;;;;;;;;47.30;28.70;;;;;;5076176;28;19944;-77
2022/09/18 10:14:53;;;;;;;;;;;47.30;28.90;;;;;;5076076;28;19966;-77
2022/09/18 10:17:20;;;;;;;;;;;47.60;28.70;;;;;;5074822;28;20297;-79
2022/09/18 10:19:46;;;;;;;;;;;48.20;28.20;;;;;;5076066;28;19909;-76
2022/09/18 10:22:13;;;;;;;;;;;47.20;28.20;;;;;;5076174;28;19919;-79
2022/09/18 10:24:57;;;;;;;;;;;45.60;28.30;;;;;;5075933;28;19909;-79
2022/09/18 10:27:23;;;;;;;;;;;45.10;28.10;;;;;;5075850;28;19932;-77
2022/09/18 10:29:51;;;;;;;;;;;43.50;28.60;;;;;;5075800;28;20296;-77
2022/09/18 10:32:34;;;;;;;;;;;42.60;29.00;;;;;;5075797;28;19916;-78
2022/09/18 10:35:00;;;;;;;;;;;43.70;29.40;;;;;;5075894;28;19970;-80
2022/09/18 10:37:28;;;;;;;;;;;47.50;28.40;;;;;;5075585;28;19912;-79
2022/09/18 10:39:56;;;;;;;;;;;49.10;28.20;;;;;;5075698;28;20381;-79
2022/09/18 10:42:26;;;;;;;;;;;47.60;27.00;;;;;;5075829;28;19912;-78
2022/09/18 10:44:52;;;;;;;;;;;46.70;27.70;;;;;;5075731;28;19919;-77
2022/09/18 10:47:25;;;;;;;;;;;44.60;28.00;;;;;;5075397;28;19920;-77
2022/09/18 10:49:56;;;;;;;;;;;44.10;28.60;;;;;;5076039;28;19969;-77
2022/09/18 10:52:32;;;;;;;;;;;44.90;28.30;;;;;;5075512;28;19913;-79
2022/09/18 10:55:07;;;;;;;;;;;43.70;28.70;;;;;;5075569;28;20369;-78
2022/09/18 10:57:42;;;;;;;;;;;44.30;28.60;;;;;;5075829;28;19909;-78
2022/09/18 11:00:11;;;;;;;;;;;45.40;28.30;;;;;;5075608;28;19916;-79
2022/09/18 11:02:57;;;;;;;;;;;45.50;28.30;;;;;;5075299;28;19931;-78
2022/09/18 11:05:26;;;;;;;;;;;44.70;28.10;;;;;;5074848;28;20382;-77
2022/09/18 11:07:52;;;;;;;;;;;43.80;28.40;;;;;;5075298;28;19919;-77
2022/09/18 11:10:22;;;;;;;;;;;43.80;28.40;;;;;;5075068;28;19913;-78
2022/09/18 11:12:51;;;;;;;;;;;43.80;28.40;;;;;;5075432;28;20278;-79
2022/09/18 11:15:19;;;;;;;;;;;43.60;29.00;;;;;;5074945;28;19909;-79
2022/09/18 11:17:50;;;;;;;;;;;43.50;28.70;;;;;;5075182;28;20430;-76
2022/09/18 11:20:24;;;;;;;;;;;43.00;28.90;;;;;;5074989;28;19908;-77
2022/09/18 11:22:50;;;;;;;;;;;42.50;29.20;;;;;;5075030;28;19908;-78
2022/09/18 11:25:17;;;;;;;;;;;42.90;29.00;;;;;;5074763;28;19908;-77
2022/09/18 11:27:45;;;;;;;;;;;43.90;28.90;;;;;;5074963;28;19987;-78
2022/09/18 11:30:14;;;;;;;;;;;43.20;28.70;;;;;;5074616;28;20011;-76
2022/09/18 11:32:42;;;;;;;;;;;43.50;28.90;;;;;;5074624;28;19991;-77
2022/09/18 11:35:18;;;;;;;;;;;44.10;29.00;;;;;;5074575;28;19958;-77
2022/09/18 11:37:49;;;;;;;;;;;43.50;28.60;;;;;;5074755;28;19916;-78
2022/09/18 11:40:15;;;;;;;;;;;42.90;28.60;;;;;;5074570;28;20292;-79
2022/09/18 11:42:42;;;;;;;;;;;41.60;28.90;;;;;;5074396;28;19920;-78
2022/09/18 11:45:13;;;;;;;;;;;41.50;28.90;;;;;;5074331;28;19908;-79
2022/09/18 11:47:43;;;;;;;;;;;42.90;29.00;;;;;;5073398;28;19920;-77
2022/09/18 11:50:15;;;;;;;;;;;42.80;29.20;;;;;;5074865;28;19920;-78
2022/09/18 11:52:42;;;;;;;;;;;43.90;29.00;;;;;;5074260;28;20045;-78
2022/09/18 11:55:14;;;;;;;;;;;44.70;28.80;;;;;;5074584;28;19909;-79
2022/09/18 11:57:46;;;;;;;;;;;45.30;28.60;;;;;;5074435;28;19963;-79
2022/09/18 12:00:19;;;;;;;;;;;45.50;28.40;;;;;;5074212;28;19912;-77
2022/09/18 12:03:03;;;;;;;;;;;47.50;28.10;;;;;;5074100;28;19909;-79
2022/09/18 12:05:39;;;;;;;;;;;48.20;28.30;;;;;;5074110;28;19909;-77
2022/09/18 12:08:17;;;;;;;;;;;49.60;27.80;;;;;;5074118;28;19931;-79
2022/09/18 12:10:54;;;;;;;;;;;50.40;27.30;;;;;;5074222;28;20365;-78
2022/09/18 12:13:19;;;;;;;;;;;50.10;27.30;;;;;;5074262;28;19947;-78
2022/09/18 12:15:53;;;;;;;;;;;49.30;27.20;;;;;;5074000;28;20360;-79
2022/09/18 12:18:25;;;;;;;;;;;46.80;27.50;;;;;;5072363;28;19908;-77
2022/09/18 12:20:57;;;;;;;;;;;47.20;27.20;;;;;;5074036;28;19916;-78
2022/09/18 12:23:24;;;;;;;;;;;46.80;27.30;;;;;;5073825;28;19915;-79
2022/09/18 12:26:06;;;;;;;;;;;49.10;27.70;;;;;;5073813;28;20379;-80
2022/09/18 12:28:39;;;;;;;;;;;51.60;27.30;;;;;;5074116;28;19920;-79
2022/09/18 12:31:31;;;;;;;;;;;53.00;26.80;;;;;;5073804;28;20003;-78
2022/09/18 12:34:20;;;;;;;;;;;52.40;26.90;;;;;;5071523;28;19908;-79
2022/09/18 12:36:46;;;;;;;;;;;52.70;26.90;;;;;;5073818;28;19916;-79
2022/09/18 12:39:30;;;;;;;;;;;52.30;26.80;;;;;;5073650;28;19913;-78
2022/09/18 12:41:55;;;;;;;;;;;48.80;26.50;;;;;;5073822;28;19942;-78
2022/09/18 12:44:21;;;;;;;;;;;49.40;26.90;;;;;;5073544;28;20005;-79
2022/09/18 12:46:59;;;;;;;;;;;49.30;27.10;;;;;;5073447;28;19971;-77
2022/09/18 12:49:24;;;;;;;;;;;50.90;26.80;;;;;;5073562;28;19913;-78
2022/09/18 12:52:01;;;;;;;;;;;53.20;26.70;;;;;;5074180;28;19999;-77
2022/09/18 12:54:36;;;;;;;;;;;49.90;26.40;;;;;;5073899;28;20383;-77
2022/09/18 12:57:14;;;;;;;;;;;49.70;27.10;;;;;;5072249;28;19912;-76
2022/09/18 12:59:42;;;;;;;;;;;48.80;27.30;;;;;;5075226;28;20289;-79
2022/09/18 13:02:08;;;;;;;;;;;50.20;27.20;;;;;;5077747;28;19908;-78
2022/09/18 13:04:43;;;;;;;;;;;51.20;26.70;;;;;;5077662;28;19909;-78
2022/09/18 13:07:15;;;;;;;;;;;50.80;27.20;;;;;;5075987;28;19914;-77
2022/09/18 13:09:43;;;;;;;;;;;52.10;26.80;;;;;;5077339;28;19908;-77
2022/09/18 13:12:17;;;;;;;;;;;50.80;26.90;;;;;;5076087;28;19916;-79
2022/09/18 13:14:46;;;;;;;;;;;51.10;27.40;;;;;;5077619;28;19944;-79
2022/09/18 13:17:14;;;;;;;;;;;52.60;27.20;;;;;;5077366;28;19916;-78
2022/09/18 13:19:42;;;;;;;;;;;53.90;26.90;;;;;;5077223;28;19915;-79
2022/09/18 13:22:13;;;;;;;;;;;54.60;27.10;;;;;;5077218;28;20258;-79
2022/09/18 13:24:39;;;;;;;;;;;53.60;26.60;;;;;;5077249;28;19991;-76
2022/09/18 13:27:15;;;;;;;;;;;52.80;26.80;;;;;;5077307;28;20325;-79
2022/09/18 13:29:52;;;;;;;;;;;54.10;26.60;;;;;;5076934;28;19909;-78
2022/09/18 13:32:18;;;;;;;;;;;53.00;26.70;;;;;;5076946;28;19916;-78
2022/09/18 13:35:08;;;;;;;;;;;53.60;26.60;;;;;;5077043;28;19909;-76
2022/09/18 13:37:33;;;;;;;;;;;53.70;26.70;;;;;;5071247;28;20385;-78
2022/09/18 13:40:00;;;;;;;;;;;53.90;26.70;;;;;;5076849;28;19908;-76
2022/09/18 13:42:31;;;;;;;;;;;52.30;26.50;;;;;;5076953;28;19957;-79
2022/09/18 13:45:02;;;;;;;;;;;52.10;27.00;;;;;;5076889;28;20403;-77
2022/09/18 13:47:28;;;;;;;;;;;52.80;26.60;;;;;;5076454;28;19921;-79
2022/09/18 13:49:57;;;;;;;;;;;52.10;26.60;;;;;;5077428;28;19920;-76
2022/09/18 13:52:31;;;;;;;;;;;49.90;26.60;;;;;;5076735;28;20384;-77
2022/09/18 13:55:03;;;;;;;;;;;50.80;26.40;;;;;;5076599;28;19916;-78
2022/09/18 13:57:29;;;;;;;;;;;50.30;26.70;;;;;;5076451;28;19908;-77
2022/09/18 14:00:00;;;;;;;;;;;48.50;26.60;;;;;;5076454;28;19916;-76
2022/09/18 14:02:28;;;;;;;;;;;45.20;26.90;;;;;;5076442;28;19940;-78
2022/09/18 14:04:57;;;;;;;;;;;46.80;27.70;;;;;;5076392;28;19915;-78
2022/09/18 14:07:23;;;;;;;;;;;48.90;27.70;;;;;;5076308;28;19908;-77
2022/09/18 14:10:03;;;;;;;;;;;48.40;27.40;;;;;;5076217;28;19924;-77
2022/09/18 14:12:30;;;;;;;;;;;47.50;27.00;;;;;;5075577;28;19915;-76
2022/09/18 14:15:25;;;;;;;;;;;48.30;27.40;;;;;;5074943;28;20278;-75
2022/09/18 14:18:13;;;;;;;;;;;49.40;27.20;;;;;;5066885;28;19912;-76
2022/09/18 14:20:39;;;;;;;;;;;48.30;27.00;;;;;;5076240;28;19961;-77
2022/09/18 14:23:24;;;;;;;;;;;44.50;27.30;;;;;;5076121;28;19909;-77
2022/09/18 14:25:49;;;;;;;;;;;45.00;27.80;;;;;;5076389;28;19916;-76
2022/09/18 14:28:17;;;;;;;;;;;46.10;27.60;;;;;;5076243;28;19909;-78
2022/09/18 14:30:42;;;;;;;;;;;46.80;27.40;;;;;;5075794;28;20031;-75
2022/09/18 14:33:18;;;;;;;;;;;45.60;27.30;;;;;;5076064;28;19982;-76